Terminal Aerodrome Forecast
Issued by NWS Austin/San Antonio, TX

Home | Current Version | Previous Version | Text Only | Print | Product List | Glossary On
Versions: 1 2 3 4 5 6 7 8 9 10 11 12 13 14 15 16 17 18 19 20 21 22
000
FTUS44 KEWX 301400 AAA
TAFDRT
TAF AMD
KDRT 301433Z 3015/3112 12003KT P6SM FEW015
      TEMPO 3015/3016 5SM BR
     FM301700 15005KT P6SM SCT035
     FM311000 01006KT 4SM -SHRA BR BKN050=

USA.gov is the U.S. government's official web portal to all federal, state and local government web resources and services.